Time;durP1;ratioP1;P1;durP2;ratioP2;P2;SDS_P1;SDS_P2;PMS_P1;PMS_P2;Temp;Humidity;BMP_temperature;BMP_pressure;BME280_temperature;BME280_humidity;BME280_pressure;Samples;Min_cycle;Max_cycle;Signal;HPM_P1;HPM_P2
2024/01/19 00:00:07;;;;;;;3.00;2.72;;;;;;;8.84;92.85;92420.59;523950;28;885;-69
2024/01/19 00:00:23;;;;;;;5.28;4.75;;;;;;;8.83;93.11;92418.41;524012;28;857;-69
2024/01/19 00:00:38;;;;;;;8.53;7.30;;;;;;;8.82;93.24;92422.44;523945;28;834;-69
2024/01/19 00:00:54;;;;;;;10.63;9.40;;;;;;;8.81;93.28;92418.97;524090;28;774;-69
2024/01/19 00:01:11;;;;;;;10.13;8.73;;;;;;;8.80;93.29;92417.50;524067;28;774;-69
2024/01/19 00:01:26;;;;;;;9.68;7.45;;;;;;;8.78;93.41;92417.34;524006;28;825;-69
2024/01/19 00:01:41;;;;;;;8.53;6.87;;;;;;;8.78;93.34;92416.59;523990;28;1061;-69
2024/01/19 00:01:57;;;;;;;7.07;6.15;;;;;;;8.78;93.72;92419.34;524034;28;865;-69
2024/01/19 00:02:12;;;;;;;6.30;5.40;;;;;;;8.78;93.76;92422.84;524018;28;782;-69
2024/01/19 00:02:28;;;;;;;6.90;5.03;;;;;;;8.76;93.37;92417.19;524080;28;770;-69
2024/01/19 00:02:43;;;;;;;7.07;4.72;;;;;;;8.77;93.69;92421.38;523946;28;858;-69
2024/01/19 00:02:58;;;;;;;5.77;4.30;;;;;;;8.77;93.44;92421.38;523733;28;2199;-69
2024/01/19 00:03:14;;;;;;;5.70;5.07;;;;;;;8.77;93.64;92421.38;523861;28;829;-69
2024/01/19 00:03:29;;;;;;;7.23;5.90;;;;;;;8.76;93.47;92419.19;523840;28;897;-69
2024/01/19 00:03:45;;;;;;;7.20;5.47;;;;;;;8.59;93.53;92406.13;523828;28;1113;-69
2024/01/19 00:04:00;;;;;;;5.87;4.90;;;;;;;8.75;93.25;92423.97;523875;28;857;-69
2024/01/19 00:04:16;;;;;;;5.15;4.55;;;;;;;8.72;93.44;92425.09;523826;28;806;-69
2024/01/19 00:04:31;;;;;;;4.00;3.60;;;;;;;8.71;93.41;92420.88;523993;28;1179;-69
2024/01/19 00:04:47;;;;;;;3.00;2.77;;;;;;;8.72;93.19;92429.88;525866;28;1368;-69
2024/01/19 00:05:05;;;;;;;2.97;2.70;;;;;;;8.71;93.38;92429.13;526103;28;1053;-69
2024/01/19 00:05:20;;;;;;;3.65;2.60;;;;;;;8.72;93.12;92427.84;526864;28;976;-69
2024/01/19 00:05:36;;;;;;;4.20;2.70;;;;;;;8.72;93.29;92430.59;526098;28;778;-69
2024/01/19 00:05:51;;;;;;;4.13;2.85;;;;;;;8.74;93.19;92432.78;526115;28;829;-69
2024/01/19 00:06:07;;;;;;;5.17;3.33;;;;;;;8.74;93.43;92433.53;526019;28;1334;-69
2024/01/19 00:06:22;;;;;;;4.57;3.10;;;;;;;8.75;93.17;92429.47;526173;28;805;-68
2024/01/19 00:06:39;;;;;;;3.03;2.60;;;;;;;8.65;93.07;92416.88;526163;28;857;-69
2024/01/19 00:06:54;;;;;;;3.35;2.90;;;;;;;8.79;93.01;92434.59;525992;28;923;-69
2024/01/19 00:07:10;;;;;;;3.10;2.63;;;;;;;8.79;93.19;92435.31;526082;28;1011;-69
2024/01/19 00:07:25;;;;;;;2.78;2.50;;;;;;;8.80;92.76;92436.03;526189;28;781;-69
2024/01/19 00:07:40;;;;;;;3.03;2.73;;;;;;;8.81;92.93;92438.25;526061;28;1113;-69
2024/01/19 00:07:56;;;;;;;2.93;2.53;;;;;;;8.82;92.49;92436.19;526114;28;794;-69
2024/01/19 00:08:11;;;;;;;2.55;2.35;;;;;;;8.83;92.32;92435.66;526112;28;943;-69
2024/01/19 00:08:27;;;;;;;2.67;2.37;;;;;;;8.84;92.37;92437.09;526131;28;845;-69
2024/01/19 00:08:42;;;;;;;2.60;2.20;;;;;;;8.81;92.12;92434.75;526083;28;826;-69
2024/01/19 00:08:58;;;;;;;2.50;2.27;;;;;;;8.85;92.24;92441.34;526113;28;860;-69
2024/01/19 00:09:14;;;;;;;2.60;2.30;;;;;;;8.82;91.55;92436.19;526141;28;825;-69
2024/01/19 00:09:29;;;;;;;3.55;2.50;;;;;;;8.76;91.41;92430.19;526053;28;841;-69
2024/01/19 00:09:45;;;;;;;7.07;3.13;;;;;;;8.70;90.87;92435.19;526013;28;821;-69
2024/01/19 00:10:01;;;;;;;7.60;3.35;;;;;;;8.65;90.73;92431.38;526125;28;774;-69
2024/01/19 00:10:17;;;;;;;4.13;2.47;;;;;;;8.63;90.80;92430.47;526198;28;833;-69
2024/01/19 00:10:32;;;;;;;4.22;2.30;;;;;;;8.63;90.76;92433.97;526068;28;873;-69
2024/01/19 00:10:48;;;;;;;4.27;2.60;;;;;;;8.64;90.77;92431.94;526144;28;798;-69
2024/01/19 00:11:05;;;;;;;2.88;2.65;;;;;;;8.65;90.70;92430.63;526044;28;864;-69
2024/01/19 00:11:20;;;;;;;3.28;2.80;;;;;;;8.66;90.69;92432.84;526133;28;912;-69
2024/01/19 00:11:36;;;;;;;3.30;2.30;;;;;;;8.67;90.62;92434.28;526075;28;809;-69
2024/01/19 00:11:51;;;;;;;2.67;2.10;;;;;;;8.67;90.84;92428.78;526115;28;860;-69
2024/01/19 00:12:07;;;;;;;2.70;2.43;;;;;;;8.69;90.65;92428.97;526163;28;869;-69
2024/01/19 00:12:23;;;;;;;3.35;2.80;;;;;;;8.69;90.75;92431.72;526102;28;980;-69
2024/01/19 00:12:38;;;;;;;3.70;3.30;;;;;;;8.70;90.71;92432.44;526039;28;868;-69
2024/01/19 00:12:54;;;;;;;4.18;3.78;;;;;;;8.69;90.64;92431.72;526094;28;841;-69
2024/01/19 00:13:09;;;;;;;4.87;3.80;;;;;;;8.68;90.91;92426.78;526145;28;829;-69
2024/01/19 00:13:24;;;;;;;5.03;3.60;;;;;;;8.68;90.76;92430.25;526077;28;852;-69
2024/01/19 00:13:43;;;;;;;4.07;3.43;;;;;;;8.69;91.02;92420.72;526089;28;814;-69
2024/01/19 00:13:59;;;;;;;3.13;2.83;;;;;;;8.69;90.90;92422.72;526016;28;960;-69
2024/01/19 00:14:14;;;;;;;2.73;2.47;;;;;;;8.70;91.09;92429.69;526093;28;884;-69
2024/01/19 00:14:30;;;;;;;3.15;2.42;;;;;;;8.68;91.11;92424.75;526046;28;805;-69
2024/01/19 00:14:45;;;;;;;3.27;2.60;;;;;;;8.68;91.02;92424.03;526028;28;782;-69
2024/01/19 00:15:05;;;;;;;3.33;2.60;;;;;;;8.69;91.21;92419.97;526083;28;806;-69
2024/01/19 00:15:20;;;;;;;3.28;2.60;;;;;;;8.67;91.22;92420.53;526046;28;885;-69
2024/01/19 00:15:36;;;;;;;2.75;2.50;;;;;;;8.67;91.25;92422.56;526129;28;841;-69
2024/01/19 00:15:52;;;;;;;2.47;2.27;;;;;;;8.68;91.42;92424.03;526111;28;806;-69
2024/01/19 00:16:08;;;;;;;2.33;2.10;;;;;;;8.67;91.31;92423.28;526119;28;865;-69
2024/01/19 00:16:23;;;;;;;2.37;2.13;;;;;;;8.67;91.41;92426.03;526058;28;920;-69
2024/01/19 00:16:42;;;;;;;2.85;2.22;;;;;;;8.67;91.54;92423.28;526042;28;804;-69
2024/01/19 00:16:57;;;;;;;2.75;2.10;;;;;;;8.65;91.41;92416.88;526074;28;936;-69
2024/01/19 00:17:13;;;;;;;2.20;2.00;;;;;;;8.65;91.66;92422.38;526069;28;766;-69
2024/01/19 00:17:28;;;;;;;2.23;1.90;;;;;;;8.65;91.62;92420.38;526143;28;856;-69
2024/01/19 00:17:44;;;;;;;2.58;1.83;;;;;;;8.65;91.66;92419.63;526062;28;850;-69
2024/01/19 00:17:59;;;;;;;2.57;1.73;;;;;;;8.64;92.01;92416.16;526017;28;770;-69
2024/01/19 00:18:14;;;;;;;2.78;1.70;;;;;;;8.66;92.12;92418.34;526169;28;762;-69
2024/01/19 00:18:30;;;;;;;2.73;1.77;;;;;;;8.66;91.86;92419.09;526049;28;873;-69
2024/01/19 00:18:45;;;;;;;2.50;1.83;;;;;;;8.67;92.09;92423.28;526079;28;821;-69
2024/01/19 00:19:01;;;;;;;2.53;1.95;;;;;;;8.67;91.83;92423.28;526073;28;786;-69
2024/01/19 00:19:16;;;;;;;2.70;1.90;;;;;;;8.68;92.07;92422.00;526089;28;770;-69
2024/01/19 00:19:35;;;;;;;3.50;1.52;;;;;;;8.69;92.13;92420.72;525839;28;1980;-69
2024/01/19 00:19:50;;;;;;;3.05;1.45;;;;;;;8.69;91.86;92417.22;526077;28;841;-69
2024/01/19 00:20:09;;;;;;;2.53;1.67;;;;;;;8.70;91.91;92421.44;526124;28;940;-69
2024/01/19 00:20:25;;;;;;;1.80;1.70;;;;;;;8.70;91.82;92426.94;526074;28;857;-69
2024/01/19 00:20:40;;;;;;;1.70;1.60;;;;;;;8.69;91.92;92417.94;526042;28;809;-69
2024/01/19 00:20:56;;;;;;;1.63;1.53;;;;;;;8.70;91.61;92421.44;526110;28;845;-69
2024/01/19 00:21:11;;;;;;;1.60;1.50;;;;;;;8.71;91.61;92425.63;526102;28;832;-69
2024/01/19 00:21:27;;;;;;;2.30;1.60;;;;;;;8.70;91.80;92424.19;526136;28;897;-69
2024/01/19 00:21:43;;;;;;;2.60;1.65;;;;;;;8.70;91.69;92430.44;526106;28;801;-69
2024/01/19 00:21:58;;;;;;;2.65;1.80;;;;;;;8.71;91.34;92429.13;526136;28;891;-69
2024/01/19 00:22:14;;;;;;;3.78;2.22;;;;;;;8.71;91.47;92426.38;526047;28;947;-69
2024/01/19 00:22:29;;;;;;;5.60;3.07;;;;;;;8.71;91.39;92426.38;526028;28;822;-69
2024/01/19 00:22:45;;;;;;;6.78;4.05;;;;;;;8.70;91.28;92422.19;526066;28;853;-69
2024/01/19 00:23:00;;;;;;;7.20;4.73;;;;;;;8.71;90.81;92423.63;526087;28;881;-69
2024/01/19 00:23:15;;;;;;;7.50;5.00;;;;;;;8.71;90.71;92429.13;526146;28;856;-69
2024/01/19 00:23:32;;;;;;;7.03;4.57;;;;;;;8.69;90.78;92414.47;525982;28;805;-69
2024/01/19 00:23:47;;;;;;;8.50;5.80;;;;;;;8.70;90.38;92424.94;526083;28;802;-69
2024/01/19 00:24:03;;;;;;;11.10;7.22;;;;;;;8.71;90.38;92428.38;526051;28;814;-69
2024/01/19 00:24:19;;;;;;;15.33;8.27;;;;;;;8.70;90.14;92426.94;526105;28;773;-69
2024/01/19 00:24:35;;;;;;;18.60;10.82;;;;;;;8.67;90.08;92428.78;526088;28;932;-69
2024/01/19 00:24:50;;;;;;;22.17;14.88;;;;;;;8.68;89.99;92421.28;526008;28;770;-69
2024/01/19 00:25:06;;;;;;;24.03;15.93;;;;;;;8.66;89.87;92430.09;526079;28;770;-69
2024/01/19 00:25:21;;;;;;;28.23;17.33;;;;;;;8.64;89.91;92429.91;526142;28;758;-69
2024/01/19 00:25:38;;;;;;;32.28;19.08;;;;;;;8.64;89.61;92429.19;525848;28;865;-69
2024/01/19 00:25:54;;;;;;;29.35;18.35;;;;;;;8.61;89.68;92422.06;525889;28;928;-69
2024/01/19 00:26:10;;;;;;;28.27;18.60;;;;;;;8.59;89.74;92421.88;525965;28;778;-69
2024/01/19 00:26:25;;;;;;;32.80;21.13;;;;;;;8.59;89.83;92419.88;525813;28;833;-69
2024/01/19 00:26:43;;;;;;;37.70;24.38;;;;;;;8.59;89.84;92424.63;525923;28;838;-69
2024/01/19 00:26:59;;;;;;;44.45;31.27;;;;;;;8.59;89.84;92421.88;525891;28;889;-69
2024/01/19 00:27:14;;;;;;;45.67;31.05;;;;;;;8.59;89.77;92425.38;525904;28;802;-69
2024/01/19 00:27:29;;;;;;;41.90;30.23;;;;;;;8.59;90.13;92422.63;525922;28;865;-69
2024/01/19 00:27:46;;;;;;;38.47;29.73;;;;;;;8.59;89.86;92425.38;526059;28;754;-69
2024/01/19 00:28:01;;;;;;;30.05;22.40;;;;;;;8.60;89.93;92423.34;526023;28;1062;-69
2024/01/19 00:28:17;;;;;;;26.63;20.73;;;;;;;8.59;90.29;92421.88;526099;28;801;-69
2024/01/19 00:28:32;;;;;;;33.50;26.98;;;;;;;8.61;90.19;92424.81;525993;28;873;-69
2024/01/19 00:28:48;;;;;;;30.37;24.80;;;;;;;8.60;90.02;92424.06;526097;28;884;-69
2024/01/19 00:29:04;;;;;;;23.27;19.27;;;;;;;8.59;90.18;92419.88;525940;28;939;-70
2024/01/19 00:29:19;;;;;;;20.70;17.73;;;;;;;8.59;90.41;92430.88;526040;28;782;-70
2024/01/19 00:29:35;;;;;;;18.20;15.70;;;;;;;8.58;90.64;92426.66;526028;28;847;-69
2024/01/19 00:29:50;;;;;;;18.63;16.27;;;;;;;8.57;90.55;92427.97;525988;28;842;-69
2024/01/19 00:30:06;;;;;;;22.13;19.63;;;;;;;8.55;90.86;92433.28;526085;28;884;-69
2024/01/19 00:30:22;;;;;;;21.65;19.35;;;;;;;8.53;91.01;92430.38;526075;28;778;-69
2024/01/19 00:30:37;;;;;;;18.73;16.80;;;;;;;8.52;91.07;92425.41;525974;28;896;-69
2024/01/19 00:30:52;;;;;;;16.00;13.57;;;;;;;8.50;91.10;92419.75;526148;28;1098;-69
2024/01/19 00:31:08;;;;;;;11.80;9.77;;;;;;;8.49;91.34;92430.00;526058;28;755;-69
2024/01/19 00:31:26;;;;;;;9.20;7.38;;;;;;;8.49;91.25;92429.28;525904;28;900;-69
2024/01/19 00:31:45;;;;;;;9.25;6.55;;;;;;;8.46;91.44;92422.88;525844;28;917;-69
2024/01/19 00:32:00;;;;;;;9.00;6.22;;;;;;;8.46;91.50;92425.63;525830;28;833;-69
2024/01/19 00:32:16;;;;;;;8.63;6.07;;;;;;;8.46;91.49;92425.63;525921;28;922;-69
2024/01/19 00:32:31;;;;;;;8.73;5.75;;;;;;;8.47;91.45;92427.09;525933;28;818;-69
2024/01/19 00:32:47;;;;;;;7.67;5.67;;;;;;;8.48;91.80;92428.56;525853;28;876;-69
2024/01/19 00:33:03;;;;;;;9.85;8.50;;;;;;;8.49;91.49;92429.28;525936;28;884;-69
2024/01/19 00:33:18;;;;;;;14.35;12.77;;;;;;;8.51;91.80;92432.22;525961;28;838;-69
2024/01/19 00:33:34;;;;;;;15.10;13.07;;;;;;;8.51;91.84;92432.91;526020;28;900;-69
2024/01/19 00:33:49;;;;;;;10.68;8.88;;;;;;;8.51;91.86;92429.47;526069;28;824;-69
2024/01/19 00:34:05;;;;;;;5.43;4.93;;;;;;;8.52;91.57;92422.66;526135;28;754;-69
2024/01/19 00:34:20;;;;;;;5.50;5.00;;;;;;;8.52;91.66;92428.91;526039;28;838;-69
2024/01/19 00:34:36;;;;;;;6.07;5.47;;;;;;;8.54;91.62;92433.81;525995;28;778;-69
2024/01/19 00:34:51;;;;;;;6.10;5.33;;;;;;;8.56;91.80;92431.97;525947;28;865;-69
2024/01/19 00:35:07;;;;;;;4.88;4.25;;;;;;;8.56;91.63;92431.97;526134;28;762;-69
2024/01/19 00:35:22;;;;;;;4.80;4.30;;;;;;;8.54;91.18;92428.31;526070;28;868;-69
2024/01/19 00:35:38;;;;;;;5.80;4.32;;;;;;;8.49;91.30;92427.25;525951;28;762;-69
2024/01/19 00:35:53;;;;;;;5.83;3.67;;;;;;;8.46;91.09;92428.38;526083;28;829;-69
2024/01/19 00:36:08;;;;;;;4.70;3.40;;;;;;;8.45;90.99;92434.44;526006;28;1049;-69
2024/01/19 00:36:24;;;;;;;5.43;4.27;;;;;;;8.45;91.36;92435.16;526010;28;778;-69
2024/01/19 00:36:40;;;;;;;7.82;6.10;;;;;;;8.44;91.20;92432.97;525898;28;849;-69
2024/01/19 00:36:55;;;;;;;7.30;6.25;;;;;;;8.45;91.00;92434.44;526063;28;884;-69
2024/01/19 00:37:11;;;;;;;4.97;4.40;;;;;;;8.46;91.11;92438.66;526058;28;814;-69
2024/01/19 00:37:26;;;;;;;6.63;4.87;;;;;;;8.45;91.24;92434.44;526018;28;920;-69
2024/01/19 00:37:41;;;;;;;9.18;6.63;;;;;;;8.45;91.13;92435.16;524522;28;1217;-71
2024/01/19 00:37:57;;;;;;;7.70;6.40;;;;;;;8.46;91.25;92433.88;523955;28;782;-69
2024/01/19 00:38:12;;;;;;;8.52;6.85;;;;;;;8.44;90.96;92436.47;523961;28;988;-69
2024/01/19 00:38:28;;;;;;;12.17;7.83;;;;;;;8.44;90.64;92439.22;523997;28;877;-69
2024/01/19 00:38:43;;;;;;;12.67;7.90;;;;;;;8.43;90.80;92435.00;523862;28;1051;-69
2024/01/19 00:38:59;;;;;;;10.52;6.88;;;;;;;8.41;90.51;92434.81;523979;28;798;-69
2024/01/19 00:39:14;;;;;;;10.53;6.43;;;;;;;8.38;90.10;92433.22;523882;28;1033;-67
2024/01/19 00:39:30;;;;;;;11.35;6.50;;;;;;;8.35;90.32;92434.31;523922;28;1697;-69
2024/01/19 00:39:45;;;;;;;15.13;6.60;;;;;;;8.33;89.97;92436.91;523752;28;1911;-69
2024/01/19 00:40:01;;;;;;;16.38;7.18;;;;;;;8.30;89.93;92433.25;523969;28;837;-69
2024/01/19 00:40:16;;;;;;;18.47;7.03;;;;;;;8.30;89.86;92435.25;523937;28;809;-69
2024/01/19 00:40:31;;;;;;;16.52;6.47;;;;;;;8.29;89.77;92431.78;523938;28;833;-69
2024/01/19 00:40:47;;;;;;;11.70;5.83;;;;;;;8.28;89.78;92433.06;523841;28;774;-69
2024/01/19 00:41:02;;;;;;;12.50;5.93;;;;;;;8.29;89.84;92434.53;523963;28;771;-69
2024/01/19 00:41:18;;;;;;;10.73;5.93;;;;;;;8.29;89.49;92440.03;523937;28;873;-69
2024/01/19 00:41:34;;;;;;;11.90;5.43;;;;;;;8.30;89.62;92433.25;523815;28;876;-69
2024/01/19 00:41:49;;;;;;;14.17;5.50;;;;;;;8.31;89.46;92436.72;523920;28;774;-69
2024/01/19 00:42:05;;;;;;;14.25;5.57;;;;;;;8.33;89.46;92428.66;523938;28;861;-69
2024/01/19 00:42:20;;;;;;;12.23;4.97;;;;;;;8.32;89.32;92438.19;523991;28;770;-69
2024/01/19 00:42:35;;;;;;;7.00;4.28;;;;;;;8.31;89.09;92431.97;523952;28;889;-69
2024/01/19 00:42:51;;;;;;;6.10;4.50;;;;;;;8.31;89.31;92431.22;523876;28;790;-69
2024/01/19 00:43:08;;;;;;;8.55;4.85;;;;;;;8.32;89.17;92432.69;523855;28;837;-69
2024/01/19 00:43:23;;;;;;;8.43;4.30;;;;;;;8.32;89.10;92435.44;523929;28;845;-69
2024/01/19 00:43:39;;;;;;;6.70;3.92;;;;;;;8.30;88.94;92430.50;523948;28;777;-69
2024/01/19 00:43:54;;;;;;;7.47;4.33;;;;;;;8.31;88.77;92433.97;523919;28;840;-69
2024/01/19 00:44:10;;;;;;;7.10;4.70;;;;;;;8.31;89.04;92425.72;523944;28;864;-69
2024/01/19 00:44:25;;;;;;;6.40;4.70;;;;;;;8.30;88.94;92433.25;523899;28;762;-69
2024/01/19 00:44:41;;;;;;;6.70;4.65;;;;;;;8.30;88.80;92430.50;523871;28;845;-69
2024/01/19 00:44:57;;;;;;;7.60;5.00;;;;;;;8.30;89.00;92429.75;523872;28;818;-69
2024/01/19 00:45:12;;;;;;;8.57;4.85;;;;;;;8.30;89.04;92429.75;523874;28;878;-69
2024/01/19 00:45:27;;;;;;;10.27;5.23;;;;;;;8.29;88.78;92431.06;523948;28;798;-69
2024/01/19 00:45:43;;;;;;;13.45;5.90;;;;;;;8.29;88.77;92439.31;523883;28;778;-69
2024/01/19 00:45:58;;;;;;;13.87;5.40;;;;;;;8.29;88.61;92428.31;523958;28;912;-69
2024/01/19 00:46:14;;;;;;;11.40;5.18;;;;;;;8.28;88.71;92433.06;523942;28;777;-69
2024/01/19 00:46:29;;;;;;;7.70;4.57;;;;;;;8.28;88.87;92435.81;523971;28;853;-69
2024/01/19 00:46:45;;;;;;;4.80;3.88;;;;;;;8.28;88.78;92433.06;524019;28;848;-69
2024/01/19 00:47:00;;;;;;;4.63;3.73;;;;;;;8.26;88.77;92435.66;523881;28;857;-69
2024/01/19 00:47:16;;;;;;;3.90;3.53;;;;;;;8.24;88.78;92434.72;523890;28;754;-69
2024/01/19 00:47:33;;;;;;;4.53;4.07;;;;;;;8.25;88.89;92438.94;523970;28;841;-69
2024/01/19 00:47:48;;;;;;;10.82;5.75;;;;;;;8.24;89.10;92434.72;523931;28;901;-69
2024/01/19 00:48:04;;;;;;;12.80;6.32;;;;;;;8.24;89.09;92440.22;523930;28;778;-69
2024/01/19 00:48:19;;;;;;;8.17;5.67;;;;;;;8.24;88.93;92438.19;523949;28;923;-69
2024/01/19 00:48:35;;;;;;;6.68;5.35;;;;;;;8.24;89.05;92434.72;523822;28;1097;-69
2024/01/19 00:48:51;;;;;;;7.03;6.20;;;;;;;8.24;89.13;92429.94;523936;28;765;-69
2024/01/19 00:49:06;;;;;;;8.23;6.97;;;;;;;8.24;88.97;92443.69;523982;28;844;-69
2024/01/19 00:49:22;;;;;;;9.33;7.23;;;;;;;8.25;88.92;92438.94;523885;28;786;-69
2024/01/19 00:49:38;;;;;;;10.00;7.53;;;;;;;8.25;89.10;92436.19;523990;28;924;-69
2024/01/19 00:49:53;;;;;;;8.93;7.28;;;;;;;8.26;88.85;92437.66;523775;28;877;-69
2024/01/19 00:50:09;;;;;;;8.63;7.20;;;;;;;8.22;88.89;92443.53;523958;28;817;-69
2024/01/19 00:50:24;;;;;;;8.88;6.93;;;;;;;8.19;88.62;92433.63;523866;28;817;-69
2024/01/19 00:50:39;;;;;;;8.73;6.77;;;;;;;8.18;88.63;92434.19;523884;28;840;-69
2024/01/19 00:50:55;;;;;;;9.60;7.32;;;;;;;8.16;88.74;92436.78;523933;28;849;-69
2024/01/19 00:51:10;;;;;;;10.93;8.37;;;;;;;8.16;88.89;92431.28;523898;28;813;-69
2024/01/19 00:51:26;;;;;;;16.20;9.77;;;;;;;8.13;89.02;92430.38;523671;28;845;-69
2024/01/19 00:51:41;;;;;;;17.17;9.97;;;;;;;8.03;89.20;92432.25;523787;28;857;-69
2024/01/19 00:51:57;;;;;;;12.97;9.20;;;;;;;8.01;89.19;92445.09;523770;28;870;-69
2024/01/19 00:52:12;;;;;;;14.18;9.23;;;;;;;7.97;89.31;92431.72;523767;28;770;-69
2024/01/19 00:52:28;;;;;;;15.10;9.13;;;;;;;7.97;89.25;92431.72;523744;28;1017;-69
2024/01/19 00:52:43;;;;;;;14.02;8.63;;;;;;;7.98;89.33;92426.97;523691;28;770;-69
2024/01/19 00:52:58;;;;;;;19.50;9.37;;;;;;;7.99;89.39;92433.94;523750;28;849;-69
2024/01/19 00:53:14;;;;;;;19.87;9.70;;;;;;;7.99;89.39;92436.69;523809;28;829;-69
2024/01/19 00:53:29;;;;;;;14.65;9.30;;;;;;;7.99;89.23;92440.13;523901;28;806;-69
2024/01/19 00:53:45;;;;;;;12.47;9.50;;;;;;;8.01;89.47;92443.06;523937;28;869;-69
2024/01/19 00:54:00;;;;;;;13.68;10.25;;;;;;;7.99;89.32;92440.13;523850;28;833;-69
2024/01/19 00:54:16;;;;;;;14.43;10.33;;;;;;;7.99;89.32;92439.44;523978;28;774;-69
2024/01/19 00:54:31;;;;;;;12.10;9.52;;;;;;;8.02;89.08;92443.78;523848;28;844;-69
2024/01/19 00:54:46;;;;;;;12.57;9.70;;;;;;;8.02;89.13;92438.28;523597;28;1351;-69
2024/01/19 00:55:03;;;;;;;12.07;9.23;;;;;;;8.03;88.86;92442.53;523734;28;774;-69
2024/01/19 00:55:18;;;;;;;10.30;8.43;;;;;;;7.96;88.70;92437.78;523667;28;849;-69
2024/01/19 00:55:34;;;;;;;13.13;8.53;;;;;;;7.94;88.64;92446.59;523685;28;845;-69
2024/01/19 00:55:49;;;;;;;13.90;8.40;;;;;;;7.92;88.94;92440.91;523755;28;872;-69
2024/01/19 00:56:06;;;;;;;12.40;8.10;;;;;;;7.90;88.85;92451.00;523776;28;940;-69
2024/01/19 00:56:22;;;;;;;9.45;6.78;;;;;;;7.89;88.83;92446.78;523713;28;1103;-69
2024/01/19 00:56:37;;;;;;;8.18;6.18;;;;;;;7.88;89.18;92448.09;523767;28;849;-69
2024/01/19 00:56:53;;;;;;;9.13;6.10;;;;;;;7.85;89.18;92441.69;523812;28;865;-69
2024/01/19 00:57:08;;;;;;;8.83;5.70;;;;;;;7.86;89.41;92448.63;523925;28;841;-69
2024/01/19 00:57:23;;;;;;;7.82;5.30;;;;;;;7.87;89.40;92449.34;523911;28;787;-69
2024/01/19 00:57:39;;;;;;;7.07;4.63;;;;;;;7.86;89.41;92451.38;523866;28;877;-69
2024/01/19 00:57:54;;;;;;;6.30;4.55;;;;;;;7.86;89.76;92450.66;523859;28;809;-69
2024/01/19 00:58:10;;;;;;;7.03;5.20;;;;;;;7.87;89.50;92449.34;523840;28;858;-69
2024/01/19 00:58:26;;;;;;;7.32;5.35;;;;;;;7.87;89.52;92447.34;523933;28;838;-69
2024/01/19 00:58:43;;;;;;;7.50;5.20;;;;;;;7.87;89.68;92450.09;523911;28;776;-69
2024/01/19 00:58:59;;;;;;;6.88;5.05;;;;;;;7.90;89.59;92448.25;523901;28;910;-69
2024/01/19 00:59:14;;;;;;;7.90;5.63;;;;;;;7.90;89.65;92451.00;523888;28;810;-69
2024/01/19 00:59:30;;;;;;;8.75;6.63;;;;;;;7.91;89.61;92450.44;523828;28;804;-69
2024/01/19 00:59:45;;;;;;;10.67;8.20;;;;;;;7.91;89.28;92447.69;523870;28;1929;-69
2024/01/19 01:00:00;;;;;;;14.40;9.80;;;;;;;7.90;89.39;92443.50;523843;28;810;-69
2024/01/19 01:00:16;;;;;;;16.00;9.80;;;;;;;7.92;89.34;92451.19;523940;28;770;-69
2024/01/19 01:00:31;;;;;;;13.15;8.57;;;;;;;7.91;89.22;92447.69;523934;28;858;-69
2024/01/19 01:00:47;;;;;;;11.13;8.03;;;;;;;7.92;88.88;92443.66;523828;28;873;-69
2024/01/19 01:01:04;;;;;;;11.80;7.90;;;;;;;7.92;88.96;92440.19;523830;28;822;-69
2024/01/19 01:01:20;;;;;;;16.50;11.57;;;;;;;7.94;88.75;92443.09;523904;28;857;-69
2024/01/19 01:01:35;;;;;;;26.73;20.27;;;;;;;7.93;88.57;92438.88;523890;28;837;-69
2024/01/19 01:01:50;;;;;;;25.98;19.80;;;;;;;7.93;88.59;92442.38;523911;28;829;-69
2024/01/19 01:02:06;;;;;;;22.77;16.47;;;;;;;7.93;88.81;92433.38;523988;28;774;-69
2024/01/19 01:02:21;;;;;;;25.37;18.97;;;;;;;7.92;88.78;92435.44;523854;28;770;-69
2024/01/19 01:02:37;;;;;;;18.75;14.25;;;;;;;7.93;88.81;92441.63;523897;28;861;-69
2024/01/19 01:02:52;;;;;;;9.00;6.70;;;;;;;7.94;88.68;92437.59;523895;28;798;-69
2024/01/19 01:03:09;;;;;;;5.30;4.53;;;;;;;7.93;88.74;92438.88;523916;28;802;-69
2024/01/19 01:03:26;;;;;;;4.82;4.25;;;;;;;7.93;88.79;92436.88;523896;28;1093;-69
2024/01/19 01:03:41;;;;;;;6.20;4.90;;;;;;;7.93;88.94;92436.13;524251;28;1168;-69
2024/01/19 01:03:58;;;;;;;10.70;8.03;;;;;;;7.94;88.85;92443.09;526014;28;810;-69
2024/01/19 01:04:14;;;;;;;17.63;13.32;;;;;;;7.94;89.11;92437.59;525960;28;861;-69
2024/01/19 01:04:29;;;;;;;18.17;14.33;;;;;;;7.93;89.29;92436.88;526033;28;810;-69
2024/01/19 01:04:45;;;;;;;12.43;10.40;;;;;;;7.93;89.27;92436.13;521882;28;1137;-69
2024/01/19 01:05:00;;;;;;;7.93;6.10;;;;;;;7.92;89.11;92434.69;521706;28;1211;-69
2024/01/19 01:05:18;;;;;;;5.60;4.18;;;;;;;7.92;89.15;92437.44;521726;28;898;-69
2024/01/19 01:05:34;;;;;;;5.03;3.75;;;;;;;7.91;89.25;92433.22;521843;28;888;-69
2024/01/19 01:05:56;;;;;;;6.00;4.18;;;;;;;7.92;89.48;92435.44;521778;28;814;-70
2024/01/19 01:06:12;;;;;;;3.60;3.10;;;;;;;7.92;89.58;92437.44;521753;28;1259;-69
2024/01/19 01:06:27;;;;;;;2.70;2.37;;;;;;;7.80;89.36;92417.88;521866;28;794;-69
2024/01/19 01:06:43;;;;;;;2.08;1.75;;;;;;;7.92;89.58;92434.69;521766;28;837;-69
2024/01/19 01:06:58;;;;;;;2.27;1.47;;;;;;;7.91;89.47;92431.19;521837;28;775;-68
2024/01/19 01:07:14;;;;;;;3.17;2.08;;;;;;;7.92;89.50;92440.19;521850;28;770;-69
2024/01/19 01:07:29;;;;;;;3.63;2.87;;;;;;;7.92;89.59;92437.44;521875;28;916;-69
2024/01/19 01:07:44;;;;;;;5.18;4.03;;;;;;;7.92;89.57;92431.94;521858;28;896;-69
2024/01/19 01:08:00;;;;;;;4.50;3.60;;;;;;;7.91;89.79;92438.72;521688;28;975;-69
2024/01/19 01:08:15;;;;;;;2.23;2.00;;;;;;;7.93;89.75;92441.63;521893;28;793;-69
2024/01/19 01:08:34;;;;;;;1.88;1.73;;;;;;;7.93;89.73;92436.13;521802;28;770;-69
2024/01/19 01:08:50;;;;;;;2.13;1.67;;;;;;;7.92;89.49;92438.16;521793;28;901;-69
2024/01/19 01:09:05;;;;;;;2.40;1.80;;;;;;;7.91;89.74;92439.44;521872;28;869;-69
2024/01/19 01:09:21;;;;;;;2.10;1.77;;;;;;;7.88;89.45;92435.06;521755;28;793;-68
2024/01/19 01:09:37;;;;;;;2.00;1.77;;;;;;;7.85;89.58;92438.19;521850;28;770;-69
2024/01/19 01:09:52;;;;;;;2.42;2.20;;;;;;;7.82;89.52;92433.81;521792;28;838;-69
2024/01/19 01:10:08;;;;;;;2.67;2.20;;;;;;;7.78;89.51;92436.19;521744;28;989;-69
2024/01/19 01:10:24;;;;;;;3.15;2.00;;;;;;;7.72;89.32;92435.66;521700;28;1596;-69
2024/01/19 01:10:39;;;;;;;5.67;2.57;;;;;;;7.64;89.12;92430.22;521690;28;898;-69
2024/01/19 01:10:55;;;;;;;14.40;4.13;;;;;;;7.57;89.18;92433.72;521807;28;781;-69
2024/01/19 01:11:10;;;;;;;15.20;4.73;;;;;;;7.51;89.38;92431.16;521841;28;865;-69
2024/01/19 01:11:27;;;;;;;8.00;4.20;;;;;;;7.50;89.75;92435.19;521776;28;841;-69
2024/01/19 01:11:42;;;;;;;6.18;3.65;;;;;;;7.43;89.95;92433.19;521849;28;905;-69
2024/01/19 01:11:58;;;;;;;6.80;3.60;;;;;;;7.40;90.21;92437.06;521741;28;837;-69
2024/01/19 01:12:14;;;;;;;5.73;3.87;;;;;;;7.37;90.56;92432.66;521781;28;833;-69
2024/01/19 01:12:29;;;;;;;4.85;3.53;;;;;;;7.32;91.04;92433.56;521851;28;790;-69
2024/01/19 01:12:45;;;;;;;5.10;3.60;;;;;;;7.23;91.25;92423.19;521888;28;825;-69
2024/01/19 01:13:02;;;;;;;4.32;3.58;;;;;;;7.26;91.62;92424.81;521789;28;778;-69
2024/01/19 01:13:18;;;;;;;4.15;3.05;;;;;;;7.24;91.92;92429.38;521823;28;829;-69
2024/01/19 01:13:33;;;;;;;3.13;2.70;;;;;;;7.25;92.10;92425.38;521757;28;789;-69
2024/01/19 01:13:49;;;;;;;2.63;2.22;;;;;;;7.28;92.15;92427.72;521825;28;984;-69
2024/01/19 01:14:04;;;;;;;3.33;1.97;;;;;;;7.31;92.29;92426.63;521823;28;858;-69
2024/01/19 01:14:20;;;;;;;3.58;2.00;;;;;;;7.34;92.39;92428.25;521791;28;775;-69
2024/01/19 01:14:35;;;;;;;2.83;2.10;;;;;;;7.38;92.39;92422.41;521830;28;775;-69
2024/01/19 01:14:51;;;;;;;2.45;2.08;;;;;;;7.41;92.39;92424.03;521747;28;825;-69
2024/01/19 01:15:07;;;;;;;1.80;1.63;;;;;;;7.43;92.30;92424.94;521792;28;798;-70
2024/01/19 01:15:23;;;;;;;1.88;1.20;;;;;;;7.44;92.46;92418.19;521877;28;825;-69
2024/01/19 01:15:38;;;;;;;1.90;1.27;;;;;;;7.46;92.46;92421.09;521809;28;901;-69
2024/01/19 01:15:54;;;;;;;1.27;1.17;;;;;;;7.48;92.25;92415.78;521727;28;763;-69
2024/01/19 01:16:09;;;;;;;1.20;1.10;;;;;;;7.50;92.24;92417.97;521818;28;838;-69
2024/01/19 01:16:26;;;;;;;1.20;1.10;;;;;;;7.52;92.13;92413.38;521837;28;893;-69
2024/01/19 01:16:41;;;;;;;2.78;2.20;;;;;;;7.54;92.08;92421.06;521843;28;809;-69
2024/01/19 01:16:57;;;;;;;5.95;4.65;;;;;;;7.55;92.12;92417.78;521844;28;877;-69
2024/01/19 01:17:13;;;;;;;29.07;22.47;;;;;;;7.48;91.85;92404.81;521807;28;857;-69